CST,Max TemperatureF,Mean TemperatureF,Min TemperatureF,Max Dew PointF,MeanDew PointF,Min DewpointF,Max Humidity, Mean Humidity, Min Humidity, Max Sea Level PressureIn, Mean Sea Level PressureIn, Min Sea Level PressureIn, Max VisibilityMiles, Mean VisibilityMiles, Min VisibilityMiles, Max Wind SpeedMPH, Mean Wind SpeedMPH, Max Gust SpeedMPH,PrecipitationIn, CloudCover, Events, WindDirDegrees
2013-1-1,21,2,-16,16,-3,-23,81,76,68,30.32,30.16,29.95,10,7,2,9,4,,0.00,6,Snow,200
2013-1-2,21,19,17,18,14,12,93,79,74,30.14,29.94,29.87,8,4,1,16,9,,0.00,8,Snow,208
2013-1-3,17,12,8,10,6,1,81,75,65,30.28,30.18,30.01,10,8,2,17,10,21,0.00,4,Snow,272
2013-1-4,33,22,6,17,10,1,81,71,52,30.15,30.08,29.99,10,9,6,10,5,,0.00,0,,261
2013-1-5,21,10,0,16,7,-6,92,80,72,30.09,29.97,29.84,10,5,0,14,2,22,0.00,4,Fog,328
2013-1-6,21,11,1,12,6,-2,84,69,53,30.24,30.14,29.93,10,10,8,13,6,,0.00,1,,212
2013-1-7,37,28,18,23,17,11,85,70,53,29.96,29.88,29.82,10,10,9,17,12,23,0.00,0,,227
2013-1-8,33,19,5,24,14,-2,92,78,64,29.98,29.86,29.69,10,6,0,13,3,22,0.00,3,Fog,192
2013-1-9,35,28,21,24,18,14,75,65,56,30.34,30.11,29.83,10,10,10,24,13,34,0.00,4,,251
2013-1-10,42,35,28,30,24,18,87,65,41,30.25,29.99,29.66,10,8,2,23,13,29,0.04,3,Rain,166
2013-1-11,36,34,33,34,33,30,93,90,85,29.67,29.47,29.31,8,2,0,13,7,20,0.14,8,Fog-Rain,164
2013-1-12,34,18,3,31,8,-6,93,73,62,30.13,29.73,29.33,10,6,2,21,13,29,0.00,8,Snow,268
2013-1-13,10,4,-2,0,-5,-9,73,69,61,30.24,30.16,30.07,10,10,9,9,6,,0.00,3,,298
2013-1-14,12,6,1,1,-3,-6,78,68,56,30.42,30.33,30.20,10,10,5,14,6,,0.00,5,Snow,238
2013-1-15,24,14,3,10,5,-3,80,66,48,30.27,30.07,29.70,10,8,3,17,9,24,0.00,4,Snow,196
2013-1-16,30,18,5,25,11,-13,86,65,37,30.31,29.79,29.55,10,8,2,18,14,21,0.00,5,Snow,291
2013-1-17,15,9,3,2,-4,-13,76,63,46,30.43,30.36,30.27,10,7,1,12,5,20,0.00,6,Snow,277
2013-1-18,30,20,10,21,12,3,86,77,66,30.25,29.94,29.73,10,5,1,9,4,,0.02,6,Snow,142
2013-1-19,32,16,0,25,8,-11,93,72,48,30.27,29.83,29.63,10,6,1,33,9,43,0.00,4,Snow,290
2013-1-20,3,-3,-9,-6,-12,-21,71,64,53,30.44,30.33,30.22,10,7,1,15,10,23,0.00,5,Snow,287
2013-1-21,-7,-12,-16,-19,-22,-25,67,59,53,30.39,30.33,30.19,10,9,5,15,11,21,0.00,2,,292
2013-1-22,0,-11,-22,-9,-18,-29,74,64,54,30.43,30.37,30.27,10,10,8,10,5,,0.00,2,,236
2013-1-23,7,-1,-11,0,-9,-23,78,60,47,30.70,30.31,30.09,10,7,2,24,12,38,0.00,5,Snow,313
2013-1-24,7,-2,-11,-3,-15,-23,64,58,52,30.74,30.53,30.16,10,10,10,13,6,21,0.00,4,,137
2013-1-25,14,7,0,7,0,-9,79,64,54,30.38,30.04,29.84,10,7,2,17,12,28,0.00,5,Snow,287
2013-1-26,16,4,-7,6,-3,-13,76,65,54,30.39,30.29,30.15,10,10,7,9,3,,0.00,2,,137
2013-1-27,32,24,16,27,19,6,86,72,56,30.13,29.92,29.80,10,7,4,8,5,,0.02,5,Rain,127
2013-1-28,33,30,28,32,27,24,96,88,85,29.88,29.80,29.65,5,2,1,10,2,,0.05,8,Rain,145
2013-1-29,32,28,23,32,25,16,100,82,69,29.83,29.66,29.56,10,6,1,16,6,20,0.03,8,Rain-Snow,354
2013-1-30,21,12,3,16,4,-4,79,71,62,29.82,29.76,29.69,10,7,2,20,15,28,0.00,8,Snow,334
2013-1-31,3,-4,-11,-4,-11,-22,72,63,56,30.32,30.01,29.73,10,6,2,22,13,26,0.00,5,Snow,312